Time;durP1;ratioP1;P1;durP2;ratioP2;P2;SDS_P1;SDS_P2;PMS_P1;PMS_P2;Temp;Humidity;BMP_temperature;BMP_pressure;BME280_temperature;BME280_humidity;BME280_pressure;Samples;Min_cycle;Max_cycle;Signal;HPM_P1;HPM_P2
2023/03/10 00:00:38;;;;;;;;;;;;;;;4.65;63.76;98959.63;5047954;28;4903;-87
2023/03/10 00:03:05;;;;;;;;;;;;;;;4.64;63.84;98947.31;5031762;28;4800;-88
2023/03/10 00:05:32;;;;;;;;;;;;;;;4.67;63.99;98951.41;5059577;28;4710;-88
2023/03/10 00:07:58;;;;;;;;;;;;;;;4.67;63.92;98951.41;5028942;28;4917;-86
2023/03/10 00:10:25;;;;;;;;;;;;;;;4.68;63.67;98953.06;5031506;28;4215;-86
2023/03/10 00:12:51;;;;;;;;;;;;;;;4.65;63.59;98951.63;5030811;28;5012;-88
2023/03/10 00:15:18;;;;;;;;;;;;;;;4.64;63.67;98962.50;5043441;28;4665;-87
2023/03/10 00:17:45;;;;;;;;;;;;;;;4.60;63.93;98956.00;5030282;28;4970;-88
2023/03/10 00:20:12;;;;;;;;;;;;;;;4.64;63.74;98965.19;5046010;28;4947;-88
2023/03/10 00:22:40;;;;;;;;;;;;;;;4.70;63.36;98964.28;5049213;28;4934;-88
2023/03/10 00:25:07;;;;;;;;;;;;;;;4.67;63.47;98956.75;5025214;28;4751;-87
2023/03/10 00:27:33;;;;;;;;;;;;;;;4.67;63.31;98954.88;5030446;28;4519;-88
2023/03/10 00:30:00;;;;;;;;;;;;;;;4.66;63.48;98955.13;5044480;28;4994;-87
2023/03/10 00:32:27;;;;;;;;;;;;;;;4.65;63.49;98948.97;5047824;28;4633;-87
2023/03/10 00:34:54;;;;;;;;;;;;;;;4.68;63.12;98953.88;5063686;28;4598;-87
2023/03/10 00:37:21;;;;;;;;;;;;;;;4.63;63.46;98953.69;5065541;28;4386;-88
2023/03/10 00:39:47;;;;;;;;;;;;;;;4.71;63.19;98955.28;5032067;28;4920;-86
2023/03/10 00:42:14;;;;;;;;;;;;;;;4.68;63.22;98947.72;5063777;28;4663;-87
2023/03/10 00:44:40;;;;;;;;;;;;;;;4.66;63.17;98955.13;5048670;28;4521;-87
2023/03/10 00:47:07;;;;;;;;;;;;;;;4.58;63.38;98963.38;5046812;28;4224;-88
2023/03/10 00:49:34;;;;;;;;;;;;;;;4.61;63.23;98960.28;5049943;28;4958;-89
2023/03/10 00:52:01;;;;;;;;;;;;;;;4.58;63.38;98953.53;5030318;28;4889;-89
2023/03/10 00:54:27;;;;;;;;;;;;;;;4.57;63.46;98951.09;5041797;28;4519;-88
2023/03/10 00:56:54;;;;;;;;;;;;;;;4.56;63.44;98955.63;5046294;28;4673;-88
2023/03/10 00:59:21;;;;;;;;;;;;;;;4.56;63.28;98950.28;5039993;28;4602;-89
2023/03/10 01:01:47;;;;;;;;;;;;;;;4.53;63.47;98951.53;5032310;28;4405;-87
2023/03/10 01:04:14;;;;;;;;;;;;;;;4.53;63.36;98962.22;5043556;28;4861;-87
2023/03/10 01:06:43;;;;;;;;;;;;;;;4.61;63.08;98961.09;5026289;28;4110;-88
2023/03/10 01:09:10;;;;;;;;;;;;;;;4.55;63.30;98960.13;5063185;28;4758;-88
2023/03/10 01:11:36;;;;;;;;;;;;;;;4.56;63.23;98950.28;5061204;28;4769;-87
2023/03/10 01:14:03;;;;;;;;;;;;;;;4.53;63.22;98958.72;5040842;28;4890;-87
2023/03/10 01:16:29;;;;;;;;;;;;;;;4.51;63.39;98960.78;5028319;28;4734;-88
2023/03/10 01:18:56;;;;;;;;;;;;;;;4.54;63.06;98963.81;5043459;28;4823;-88
2023/03/10 01:21:23;;;;;;;;;;;;;;;4.50;63.22;98964.47;5027526;28;4581;-87
2023/03/10 01:23:49;;;;;;;;;;;;;;;4.50;63.36;98962.66;5027505;28;4736;-86
2023/03/10 01:26:16;;;;;;;;;;;;;;;4.49;63.37;98961.00;5025889;28;4646;-86
2023/03/10 01:28:42;;;;;;;;;;;;;;;4.54;63.07;98958.50;5044940;28;4838;-87
2023/03/10 01:31:09;;;;;;;;;;;;;;;4.49;63.12;98958.34;5026395;28;4568;-85
2023/03/10 01:33:38;;;;;;;;;;;;;;;4.50;63.11;98965.31;5043761;28;4727;-87
2023/03/10 01:36:05;;;;;;;;;;;;;;;4.48;63.11;98958.56;5057747;28;4760;-88
2023/03/10 01:38:32;;;;;;;;;;;;;;;4.48;62.58;98961.22;5027350;28;4219;-87
2023/03/10 01:40:58;;;;;;;;;;;;;;;4.50;63.00;98962.66;5042090;28;4537;-87
2023/03/10 01:43:25;;;;;;;;;;;;;;;4.48;62.92;98961.22;5042629;28;4069;-86
2023/03/10 01:45:51;;;;;;;;;;;;;;;4.51;62.93;98961.59;5041534;28;4713;-86
2023/03/10 01:48:18;;;;;;;;;;;;;;;4.47;62.96;98960.41;5024894;28;4829;-86
2023/03/10 01:50:44;;;;;;;;;;;;;;;4.50;62.90;98959.97;5028094;28;4807;-85
2023/03/10 01:53:11;;;;;;;;;;;;;;;4.48;63.03;98962.03;5041970;28;4830;-88
2023/03/10 01:55:37;;;;;;;;;;;;;;;4.44;62.87;98960.84;5060617;28;4732;-87
2023/03/10 01:58:05;;;;;;;;;;;;;;;4.40;63.04;98966.84;5061060;28;4549;-87
2023/03/10 02:00:31;;;;;;;;;;;;;;;4.42;63.02;98954.91;5025575;28;4890;-87
2023/03/10 02:02:58;;;;;;;;;;;;;;;4.44;63.00;98957.34;5045386;28;4082;-87
2023/03/10 02:05:24;;;;;;;;;;;;;;;4.46;62.92;98963.28;5043451;28;3904;-89
2023/03/10 02:07:51;;;;;;;;;;;;;;;4.43;62.97;98967.19;5061611;28;4310;-87
2023/03/10 02:10:17;;;;;;;;;;;;;;;4.43;62.83;98964.53;5057737;28;4849;-88
2023/03/10 02:12:44;;;;;;;;;;;;;;;4.45;62.88;98972.34;5061080;28;4713;-87
2023/03/10 02:15:11;;;;;;;;;;;;;;;4.43;62.79;98969.88;5039028;28;4639;-88
2023/03/10 02:17:37;;;;;;;;;;;;;;;4.51;62.56;98968.78;5038579;28;5001;-87
2023/03/10 02:20:04;;;;;;;;;;;;;;;4.45;62.44;98975.00;5037621;28;4634;-87
2023/03/10 02:22:31;;;;;;;;;;;;;;;4.40;62.75;98967.66;5042218;28;4757;-87
2023/03/10 02:24:58;;;;;;;;;;;;;;;4.37;62.82;98976.06;5019590;28;4866;-87
2023/03/10 02:27:25;;;;;;;;;;;;;;;4.41;62.53;98966.63;5053426;28;4874;-87
2023/03/10 02:29:51;;;;;;;;;;;;;;;4.43;62.74;98966.41;5051644;28;4944;-88
2023/03/10 02:32:18;;;;;;;;;;;;;;;4.37;62.73;98965.41;5046601;28;4885;-87
2023/03/10 02:34:44;;;;;;;;;;;;;;;4.39;62.79;98970.53;5026789;28;4822;-87
2023/03/10 02:37:11;;;;;;;;;;;;;;;4.41;62.58;98968.44;5042465;28;4737;-87
2023/03/10 02:39:37;;;;;;;;;;;;;;;4.46;62.13;98969.44;5043558;28;4620;-87
2023/03/10 02:42:04;;;;;;;;;;;;;;;4.39;62.68;98965.22;5025231;28;5032;-87
2023/03/10 02:44:32;;;;;;;;;;;;;;;4.36;62.66;98961.13;5045425;28;4584;-87
2023/03/10 02:46:59;;;;;;;;;;;;;;;4.36;62.96;98962.97;5045279;28;4656;-86
2023/03/10 02:49:25;;;;;;;;;;;;;;;4.38;62.41;98964.38;5027169;28;5058;-87
2023/03/10 02:51:52;;;;;;;;;;;;;;;4.39;62.50;98960.69;5039416;28;4393;-87
2023/03/10 02:54:18;;;;;;;;;;;;;;;4.37;62.47;98956.59;5038892;28;4976;-86
2023/03/10 02:56:45;;;;;;;;;;;;;;;4.36;62.70;98960.31;5025481;28;4860;-86
2023/03/10 02:59:12;;;;;;;;;;;;;;;4.36;62.65;98963.78;5042184;28;4519;-89
2023/03/10 03:01:39;;;;;;;;;;;;;;;4.38;62.62;98959.03;5044367;28;4831;-86
2023/03/10 03:04:06;;;;;;;;;;;;;;;4.40;62.41;98959.66;5046673;28;4887;-87
2023/03/10 03:06:32;;;;;;;;;;;;;;;4.40;62.37;98959.66;5027806;28;4404;-89
2023/03/10 03:08:59;;;;;;;;;;;;;;;4.37;62.49;98959.28;5024981;28;4998;-87
2023/03/10 03:11:26;;;;;;;;;;;;;;;4.32;62.47;98962.56;5045813;28;4398;-88
2023/03/10 03:13:52;;;;;;;;;;;;;;;4.30;62.68;98965.47;5043958;28;4372;-87
2023/03/10 03:16:19;;;;;;;;;;;;;;;4.31;62.48;98967.09;5029488;28;4879;-87
2023/03/10 03:18:46;;;;;;;;;;;;;;;4.32;62.53;98966.09;5028857;28;5088;-88
2023/03/10 03:21:14;;;;;;;;;;;;;;;4.30;62.44;98965.47;5030439;28;4766;-89
2023/03/10 03:23:41;;;;;;;;;;;;;;;4.33;62.29;98972.22;5008573;28;4759;-88
2023/03/10 03:26:07;;;;;;;;;;;;;;;4.30;62.39;98976.13;5005990;28;4830;-87
2023/03/10 03:28:34;;;;;;;;;;;;;;;4.35;62.32;98974.66;5010613;28;4777;-89
2023/03/10 03:31:01;;;;;;;;;;;;;;;4.34;62.40;98984.50;5027320;28;4803;-87
2023/03/10 03:33:28;;;;;;;;;;;;;;;4.35;62.26;98980.78;5026050;28;5040;-87
2023/03/10 03:35:55;;;;;;;;;;;;;;;4.33;62.31;98982.88;5021997;28;4138;-87
2023/03/10 03:38:21;;;;;;;;;;;;;;;4.38;62.16;98984.88;4999762;28;4360;-87
2023/03/10 03:40:48;;;;;;;;;;;;;;;4.30;62.33;98992.13;5032671;28;4324;-87
2023/03/10 03:43:15;;;;;;;;;;;;;;;4.29;62.31;98990.50;5033287;28;4152;-88
2023/03/10 03:45:41;;;;;;;;;;;;;;;4.37;61.93;98989.41;5020593;28;4520;-87
2023/03/10 03:48:08;;;;;;;;;;;;;;;4.36;62.21;98993.13;5019572;28;4520;-87
2023/03/10 03:50:34;;;;;;;;;;;;;;;4.32;62.02;98984.75;5031834;28;4336;-87
2023/03/10 03:53:01;;;;;;;;;;;;;;;4.32;61.80;98982.06;5019842;28;4784;-88
2023/03/10 03:55:28;;;;;;;;;;;;;;;4.27;62.34;98981.91;5018521;28;4842;-88
2023/03/10 03:57:54;;;;;;;;;;;;;;;4.30;62.02;98989.47;5017361;28;4891;-87
2023/03/10 04:00:21;;;;;;;;;;;;;;;4.27;62.02;98981.09;5017692;28;4466;-87
2023/03/10 04:02:48;;;;;;;;;;;;;;;4.31;61.94;98980.41;5033919;28;4176;-88
2023/03/10 04:05:15;;;;;;;;;;;;;;;4.35;62.07;98975.47;5023229;28;4356;-87
2023/03/10 04:07:41;;;;;;;;;;;;;;;4.31;61.88;98972.44;5040412;28;4439;-88
2023/03/10 04:10:08;;;;;;;;;;;;;;;4.30;61.89;98972.66;5038610;28;4970;-87
2023/03/10 04:12:35;;;;;;;;;;;;;;;4.24;62.23;98970.88;5042533;28;4870;-88
2023/03/10 04:15:22;;;;;;;;;;;;;;;4.27;62.05;98971.25;5053160;28;4686;-87
2023/03/10 04:18:14;;;;;;;;;;;;;;;4.36;61.71;98985.13;5041620;28;4761;-88
2023/03/10 04:21:07;;;;;;;;;;;;;;;4.29;61.70;98985.19;5039367;28;4518;-87
2023/03/10 04:23:59;;;;;;;;;;;;;;;4.30;61.84;98984.13;5038146;28;4970;-87
2023/03/10 04:26:51;;;;;;;;;;;;;;;4.36;61.59;98982.44;5037956;28;4058;-88
2023/03/10 04:29:42;;;;;;;;;;;;;;;4.22;61.95;98981.72;5037154;28;4642;-87
2023/03/10 04:32:31;;;;;;;;;;;;;;;4.25;61.76;98980.47;5041568;28;4165;-89
2023/03/10 04:35:17;;;;;;;;;;;;;;;4.25;61.78;98975.16;5048888;28;4842;-89
2023/03/10 04:38:04;;;;;;;;;;;;;;;4.31;61.55;98977.75;5052613;28;4490;-89
2023/03/10 04:40:57;;;;;;;;;;;;;;;4.26;61.74;98987.44;5042586;28;4610;-88
2023/03/10 04:43:48;;;;;;;;;;;;;;;4.21;61.59;98981.97;5041622;28;4333;-87
2023/03/10 04:46:35;;;;;;;;;;;;;;;4.33;61.50;98985.56;5040544;28;4764;-88
2023/03/10 04:49:22;;;;;;;;;;;;;;;4.29;61.42;98990.50;5042536;28;4864;-87
2023/03/10 04:51:49;;;;;;;;;;;;;;;4.29;61.83;98985.19;5039420;28;4721;-87
2023/03/10 04:54:16;;;;;;;;;;;;;;;4.24;61.56;98994.84;5042196;28;4108;-89
2023/03/10 04:56:43;;;;;;;;;;;;;;;4.21;61.64;98990.75;5042606;28;4914;-89
2023/03/10 04:59:10;;;;;;;;;;;;;;;4.33;61.48;98998.88;5043482;28;4933;-89
2023/03/10 05:01:37;;;;;;;;;;;;;;;4.20;61.67;99005.09;5044580;28;5093;-89
2023/03/10 05:04:03;;;;;;;;;;;;;;;4.25;61.72;99007.13;5053817;28;4704;-89
2023/03/10 05:06:30;;;;;;;;;;;;;;;4.24;61.65;99000.19;5029302;28;4228;-89
2023/03/10 05:08:56;;;;;;;;;;;;;;;4.24;61.51;99003.66;5024115;28;4412;-88
2023/03/10 05:11:23;;;;;;;;;;;;;;;4.24;61.55;99003.66;5021900;28;4161;-89
2023/03/10 05:13:50;;;;;;;;;;;;;;;4.22;61.55;98997.72;5021760;28;4335;-89
2023/03/10 05:16:17;;;;;;;;;;;;;;;4.27;61.33;99005.09;5041231;28;4324;-88
2023/03/10 05:18:44;;;;;;;;;;;;;;;4.26;61.39;99001.56;5054896;28;3929;-89
2023/03/10 05:21:11;;;;;;;;;;;;;;;4.29;61.11;99000.31;5057302;28;4167;-90
2023/03/10 05:23:39;;;;;;;;;;;;;;;4.29;61.15;98995.00;5027032;28;4762;-89
2023/03/10 05:26:06;;;;;;;;;;;;;;;4.29;61.20;98993.16;5037736;28;4862;-88
2023/03/10 05:28:33;;;;;;;;;;;;;;;4.19;61.41;98990.16;5040198;28;4656;-88
2023/03/10 05:31:00;;;;;;;;;;;;;;;4.19;61.38;98992.81;5023384;28;4473;-88
2023/03/10 05:33:26;;;;;;;;;;;;;;;4.29;61.21;98995.00;5039488;28;4057;-89
2023/03/10 05:35:53;;;;;;;;;;;;;;;4.21;61.48;98996.09;5041598;28;4251;-87
2023/03/10 05:38:20;;;;;;;;;;;;;;;4.19;61.51;99000.00;5045071;28;4902;-89
2023/03/10 05:40:46;;;;;;;;;;;;;;;4.32;61.11;99013.22;5023885;28;4261;-89
2023/03/10 05:43:13;;;;;;;;;;;;;;;4.23;60.92;99009.19;5042441;28;4229;-88
2023/03/10 05:45:39;;;;;;;;;;;;;;;4.30;61.14;99017.97;5050995;28;4203;-87
2023/03/10 05:48:06;;;;;;;;;;;;;;;4.25;61.28;99013.28;5042651;28;4762;-88
2023/03/10 05:50:33;;;;;;;;;;;;;;;4.22;61.28;99019.03;5042252;28;4208;-89
2023/03/10 05:53:00;;;;;;;;;;;;;;;4.26;61.29;99030.06;5024877;28;3946;-89
2023/03/10 05:55:28;;;;;;;;;;;;;;;4.25;61.07;99028.47;5041669;28;4178;-88
2023/03/10 05:57:55;;;;;;;;;;;;;;;4.23;60.96;99033.19;5054488;28;4261;-89
2023/03/10 06:00:21;;;;;;;;;;;;;;;4.23;61.09;99031.31;5027624;28;4091;-89
2023/03/10 06:02:48;;;;;;;;;;;;;;;4.18;61.21;99031.16;5046668;28;4113;-88
2023/03/10 06:05:15;;;;;;;;;;;;;;;4.19;61.07;99035.47;5065193;28;4468;-89
2023/03/10 06:07:50;;;;;;;;;;;;;;;4.21;61.07;99035.25;5057299;28;4557;-89
2023/03/10 06:10:16;;;;;;;;;;;;;;;4.14;61.31;99035.28;5048107;28;4441;-87
2023/03/10 06:12:43;;;;;;;;;;;;;;;4.22;61.20;99042.22;5046407;28;4961;-90
2023/03/10 06:15:10;;;;;;;;;;;;;;;4.14;61.30;99042.47;5032955;28;4511;-89
2023/03/10 06:17:37;;;;;;;;;;;;;;;4.20;60.96;99046.94;5046222;28;5082;-89
2023/03/10 06:20:04;;;;;;;;;;;;;;;4.20;60.83;99050.41;5047833;28;4420;-89
2023/03/10 06:22:31;;;;;;;;;;;;;;;4.24;61.02;99056.97;5046821;28;4518;-87
2023/03/10 06:25:01;;;;;;;;;;;;;;;4.30;60.72;99056.09;5041024;28;4708;-89
2023/03/10 06:27:34;;;;;;;;;;;;;;;4.29;60.77;99042.97;5030688;28;3606;-89
2023/03/10 06:30:01;;;;;;;;;;;;;;;4.19;61.11;99058.63;5067108;28;5217;-89
2023/03/10 06:32:30;;;;;;;;;;;;;;;4.27;60.57;99064.53;5052553;28;5173;-89
2023/03/10 06:34:56;;;;;;;;;;;;;;;4.30;60.77;99065.94;5068477;28;3785;-88
2023/03/10 06:37:23;;;;;;;;;;;;;;;4.21;61.14;99067.25;5052944;28;3567;-89
2023/03/10 06:39:49;;;;;;;;;;;;;;;4.22;60.63;99075.00;5053259;28;2784;-89
2023/03/10 06:42:16;;;;;;;;;;;;;;;4.23;60.78;99067.81;5054413;28;4760;-89
2023/03/10 06:44:42;;;;;;;;;;;;;;;4.15;60.94;99068.06;5061203;28;4513;-89
2023/03/10 06:47:09;;;;;;;;;;;;;;;4.22;60.70;99068.88;5050410;28;2722;-89
2023/03/10 06:49:36;;;;;;;;;;;;;;;4.21;60.79;99061.91;5033964;28;2866;-89
2023/03/10 06:52:02;;;;;;;;;;;;;;;4.16;60.87;99056.41;5064466;28;2882;-89
2023/03/10 06:54:29;;;;;;;;;;;;;;;4.16;60.69;99043.06;5047947;28;3563;-89
2023/03/10 06:56:55;;;;;;;;;;;;;;;4.17;61.15;99039.38;5063454;28;2937;-89
2023/03/10 06:59:22;;;;;;;;;;;;;;;4.12;60.75;99040.03;5048263;28;4072;-88
2023/03/10 07:01:48;;;;;;;;;;;;;;;4.18;60.88;99043.69;5061924;28;3456;-88
2023/03/10 07:04:15;;;;;;;;;;;;;;;4.18;60.85;99041.03;5059385;28;3397;-88
2023/03/10 07:06:41;;;;;;;;;;;;;;;4.17;60.77;99047.34;5028637;28;2655;-89
2023/03/10 07:09:08;;;;;;;;;;;;;;;4.15;60.85;99044.94;5024302;28;3637;-88
2023/03/10 07:11:35;;;;;;;;;;;;;;;4.14;61.06;99045.94;5041359;28;3607;-88
2023/03/10 07:14:02;;;;;;;;;;;;;;;4.21;60.64;99041.41;5060848;28;3694;-88
2023/03/10 07:16:29;;;;;;;;;;;;;;;4.21;60.89;99054.72;5022476;28;2698;-86
2023/03/10 07:18:55;;;;;;;;;;;;;;;4.17;60.64;99064.16;5022078;28;4958;-88
2023/03/10 07:21:22;;;;;;;;;;;;;;;4.25;60.29;99061.25;5048690;28;3219;-88
2023/03/10 07:23:49;;;;;;;;;;;;;;;4.21;60.62;99061.91;5060006;28;2830;-88
2023/03/10 07:26:17;;;;;;;;;;;;;;;4.25;60.40;99055.91;5022449;28;2816;-87
2023/03/10 07:28:44;;;;;;;;;;;;;;;4.15;61.33;99042.25;5038041;28;3737;-86
2023/03/10 07:31:10;;;;;;;;;;;;;;;4.20;60.51;99049.59;5042255;28;2797;-86
2023/03/10 07:33:37;;;;;;;;;;;;;;;4.13;61.17;99048.84;5030595;28;2543;-87
2023/03/10 07:36:04;;;;;;;;;;;;;;;4.14;60.84;99061.13;5024980;28;2845;-86
2023/03/10 07:38:31;;;;;;;;;;;;;;;4.18;60.88;99062.34;5028710;28;2604;-86
2023/03/10 07:40:58;;;;;;;;;;;;;;;4.17;61.09;99061.50;5022535;28;2795;-84
2023/03/10 07:43:24;;;;;;;;;;;;;;;4.18;61.03;99059.69;5009938;28;2695;-84
2023/03/10 07:45:51;;;;;;;;;;;;;;;4.14;60.96;99059.25;5015647;28;3323;-84
2023/03/10 07:48:17;;;;;;;;;;;;;;;4.13;61.00;99051.50;5039696;28;4275;-82
2023/03/10 07:50:44;;;;;;;;;;;;;;;4.16;60.68;99035.88;5036458;28;2766;-83
2023/03/10 07:53:11;;;;;;;;;;;;;;;4.22;60.74;99037.69;5040140;28;3326;-83
2023/03/10 07:55:37;;;;;;;;;;;;;;;4.24;60.41;99032.97;5036241;28;2929;-83
2023/03/10 07:58:04;;;;;;;;;;;;;;;4.21;60.71;99038.75;5025146;28;2994;-82
2023/03/10 08:00:30;;;;;;;;;;;;;;;4.22;60.55;99039.53;5034467;28;2741;-84
2023/03/10 08:02:57;;;;;;;;;;;;;;;4.24;60.34;99030.31;5048096;28;2400;-85
2023/03/10 08:05:24;;;;;;;;;;;;;;;4.33;60.38;99042.34;5063727;28;2408;-86
2023/03/10 08:07:50;;;;;;;;;;;;;;;4.25;60.64;99049.78;5047023;28;4642;-84
2023/03/10 08:10:17;;;;;;;;;;;;;;;4.26;60.72;99046.06;5062876;28;1305;-83
2023/03/10 08:12:44;;;;;;;;;;;;;;;4.24;60.99;99043.63;5048553;28;2986;-85
2023/03/10 08:15:12;;;;;;;;;;;;;;;4.24;60.78;99045.50;5035569;28;2432;-85
2023/03/10 08:17:38;;;;;;;;;;;;;;;4.21;60.86;99048.59;5046105;28;2115;-85
2023/03/10 08:20:05;;;;;;;;;;;;;;;4.27;60.67;99058.38;5044683;28;2209;-84
2023/03/10 08:22:32;;;;;;;;;;;;;;;4.27;60.54;99053.06;5068081;28;1497;-84
2023/03/10 08:24:58;;;;;;;;;;;;;;;4.26;60.63;99054.06;5068162;28;2997;-84
2023/03/10 08:27:25;;;;;;;;;;;;;;;4.28;60.85;99058.16;5043242;28;1384;-84
2023/03/10 08:29:52;;;;;;;;;;;;;;;4.24;60.93;99056.97;5029088;28;1490;-85
2023/03/10 08:32:18;;;;;;;;;;;;;;;4.21;61.17;99053.91;5065099;28;1948;-84
2023/03/10 08:34:45;;;;;;;;;;;;;;;4.27;60.97;99053.88;5035303;28;1655;-84
2023/03/10 08:37:12;;;;;;;;;;;;;;;4.29;61.01;99064.28;5052762;28;1906;-84
2023/03/10 08:39:38;;;;;;;;;;;;;;;4.35;60.80;99070.63;5036307;28;2305;-83
2023/03/10 08:42:05;;;;;;;;;;;;;;;4.27;60.88;99077.03;5042973;28;1801;-85
2023/03/10 08:44:32;;;;;;;;;;;;;;;4.27;60.70;99066.38;5045058;28;3123;-85
2023/03/10 08:46:58;;;;;;;;;;;;;;;4.32;60.62;99075.38;5047456;28;4368;-85
2023/03/10 08:49:25;;;;;;;;;;;;;;;4.30;60.86;99072.09;5034924;28;1542;-85
2023/03/10 08:51:51;;;;;;;;;;;;;;;4.37;60.48;99071.22;5045276;28;2465;-85
2023/03/10 08:54:18;;;;;;;;;;;;;;;4.25;61.07;99071.09;5053879;28;1645;-85
2023/03/10 08:56:44;;;;;;;;;;;;;;;4.40;60.67;99066.28;5033689;28;1984;-83
2023/03/10 08:59:11;;;;;;;;;;;;;;;4.32;60.93;99064.72;5044375;28;2225;-85
2023/03/10 09:01:38;;;;;;;;;;;;;;;4.33;60.55;99063.66;5061511;28;2558;-83
2023/03/10 09:04:04;;;;;;;;;;;;;;;4.33;60.98;99065.53;5027479;28;2044;-85
2023/03/10 09:06:31;;;;;;;;;;;;;;;4.34;61.16;99059.16;5051065;28;2262;-85
2023/03/10 09:08:58;;;;;;;;;;;;;;;4.33;61.00;99058.34;5045708;28;2386;-83
2023/03/10 09:11:25;;;;;;;;;;;;;;;4.39;60.84;99059.31;5031157;28;1566;-84
2023/03/10 09:13:51;;;;;;;;;;;;;;;4.41;60.68;99043.94;5034958;28;1603;-84
2023/03/10 09:16:18;;;;;;;;;;;;;;;4.30;61.22;99047.28;5040991;28;2315;-84
2023/03/10 09:18:45;;;;;;;;;;;;;;;4.37;60.90;99053.38;5051608;28;1964;-83
2023/03/10 09:21:11;;;;;;;;;;;;;;;4.30;61.22;99057.94;5061486;28;1422;-83
2023/03/10 09:23:38;;;;;;;;;;;;;;;4.39;60.88;99056.66;5035890;28;1306;-84
2023/03/10 09:26:04;;;;;;;;;;;;;;;4.42;61.09;99061.56;5035890;28;2346;-83
2023/03/10 09:28:31;;;;;;;;;;;;;;;4.48;61.14;99054.53;5052674;28;1384;-83
2023/03/10 09:30:58;;;;;;;;;;;;;;;4.47;60.84;99066.22;5046810;28;1575;-82
2023/03/10 09:33:24;;;;;;;;;;;;;;;4.43;60.81;99063.19;5060274;28;4596;-83
2023/03/10 09:35:51;;;;;;;;;;;;;;;4.45;60.97;99066.44;5036407;28;1628;-83
2023/03/10 09:38:17;;;;;;;;;;;;;;;4.41;61.17;99065.25;5032679;28;1983;-82
2023/03/10 09:40:44;;;;;;;;;;;;;;;4.48;60.96;99068.69;5030969;28;2338;-82
2023/03/10 09:43:11;;;;;;;;;;;;;;;4.42;61.38;99066.88;5058294;28;1581;-82
2023/03/10 09:45:37;;;;;;;;;;;;;;;4.46;61.11;99068.06;5062221;28;2101;-83
2023/03/10 09:48:04;;;;;;;;;;;;;;;4.57;60.73;99071.09;5034064;28;1288;-82
2023/03/10 09:50:30;;;;;;;;;;;;;;;4.49;61.22;99064.97;5035385;28;2629;-82
2023/03/10 09:52:57;;;;;;;;;;;;;;;4.54;61.03;99067.00;5035460;28;1362;-82
2023/03/10 09:55:23;;;;;;;;;;;;;;;4.53;61.06;99068.06;5050595;28;2551;-82
2023/03/10 09:57:50;;;;;;;;;;;;;;;4.58;60.91;99062.88;5059659;28;1962;-80
2023/03/10 10:00:16;;;;;;;;;;;;;;;4.60;61.09;99060.00;5031658;28;3704;-81
2023/03/10 10:02:43;;;;;;;;;;;;;;;4.56;61.03;99070.28;5050195;28;2335;-83
2023/03/10 10:05:10;;;;;;;;;;;;;;;4.58;61.21;99070.88;5066275;28;2123;-83
2023/03/10 10:07:37;;;;;;;;;;;;;;;4.54;61.43;99062.50;5049094;28;2327;-81
2023/03/10 10:10:03;;;;;;;;;;;;;;;4.62;61.12;99065.91;5019215;28;2347;-82
2023/03/10 10:12:30;;;;;;;;;;;;;;;4.64;60.94;99069.19;5038973;28;2451;-82
2023/03/10 10:14:56;;;;;;;;;;;;;;;4.63;61.07;99067.56;5038636;28;2236;-82
2023/03/10 10:17:23;;;;;;;;;;;;;;;4.63;61.35;99063.03;5035446;28;2429;-82
2023/03/10 10:19:49;;;;;;;;;;;;;;;4.64;61.18;99077.19;5047813;28;2429;-83
2023/03/10 10:22:16;;;;;;;;;;;;;;;4.65;61.29;99073.50;5050101;28;1375;-82
2023/03/10 10:24:42;;;;;;;;;;;;;;;4.75;61.11;99084.50;5045707;28;3552;-84
2023/03/10 10:27:09;;;;;;;;;;;;;;;4.71;60.77;99085.97;5033891;28;2535;-82
2023/03/10 10:29:36;;;;;;;;;;;;;;;4.79;60.96;99088.34;5040750;28;1600;-83
2023/03/10 10:32:02;;;;;;;;;;;;;;;4.70;61.37;99089.66;5047933;28;2489;-83
2023/03/10 10:34:30;;;;;;;;;;;;;;;4.71;61.24;99086.78;5050058;28;2758;-82
2023/03/10 10:36:57;;;;;;;;;;;;;;;4.73;61.28;99084.69;5032349;28;4725;-81
2023/03/10 10:39:24;;;;;;;;;;;;;;;4.84;60.92;99087.69;5059834;28;4664;-82
2023/03/10 10:41:50;;;;;;;;;;;;;;;4.77;61.05;99085.91;5035729;28;2520;-82
2023/03/10 10:44:17;;;;;;;;;;;;;;;4.77;61.37;99087.75;5031214;28;2211;-82
2023/03/10 10:46:44;;;;;;;;;;;;;;;4.77;61.47;99085.09;5029441;28;1748;-81
2023/03/10 10:49:10;;;;;;;;;;;;;;;4.83;61.36;99086.06;5031617;28;1997;-83
2023/03/10 10:51:37;;;;;;;;;;;;;;;4.87;61.28;99087.25;5032729;28;2557;-82
2023/03/10 10:54:05;;;;;;;;;;;;;;;4.88;61.34;99096.88;5049743;28;1361;-81
2023/03/10 10:56:31;;;;;;;;;;;;;;;4.92;61.47;99095.44;5031127;28;1423;-82
2023/03/10 10:58:58;;;;;;;;;;;;;;;4.92;61.02;99098.09;5051266;28;2173;-82
2023/03/10 11:01:24;;;;;;;;;;;;;;;4.91;61.26;99099.13;5049387;28;3643;-80
2023/03/10 11:03:51;;;;;;;;;;;;;;;4.98;61.17;99107.91;5030184;28;3312;-83
2023/03/10 11:06:18;;;;;;;;;;;;;;;5.02;61.06;99109.09;5046767;28;3834;-82
2023/03/10 11:08:49;;;;;;;;;;;;;;;5.05;61.04;99110.50;5051051;28;1561;-82
2023/03/10 11:11:16;;;;;;;;;;;;;;;5.01;61.10;99099.47;5049225;28;2477;-82
2023/03/10 11:13:43;;;;;;;;;;;;;;;5.01;61.20;99089.59;5028331;28;2516;-81
2023/03/10 11:16:10;;;;;;;;;;;;;;;5.06;61.16;99088.13;5056821;28;3505;-81
2023/03/10 11:18:37;;;;;;;;;;;;;;;5.05;61.07;99097.97;5051033;28;2584;-79
2023/03/10 11:21:03;;;;;;;;;;;;;;;5.07;61.13;99093.25;5033554;28;1494;-80
2023/03/10 11:23:30;;;;;;;;;;;;;;;5.06;61.32;99088.94;5037452;28;1325;-81
2023/03/10 11:25:56;;;;;;;;;;;;;;;5.10;61.20;99092.00;5046065;28;1964;-77
2023/03/10 11:28:23;;;;;;;;;;;;;;;5.14;61.23;99094.00;5045768;28;2572;-81
2023/03/10 11:30:49;;;;;;;;;;;;;;;5.21;61.01;99091.28;5052131;28;2428;-81
2023/03/10 11:33:16;;;;;;;;;;;;;;;5.25;60.92;99081.78;5046355;28;1911;-82
2023/03/10 11:35:44;;;;;;;;;;;;;;;5.15;61.25;99084.97;5037372;28;1301;-81
2023/03/10 11:38:11;;;;;;;;;;;;;;;5.19;61.18;99083.47;5035815;28;2424;-83
2023/03/10 11:40:37;;;;;;;;;;;;;;;5.14;61.33;99085.16;5067289;28;2342;-82
2023/03/10 11:43:04;;;;;;;;;;;;;;;5.22;61.21;99080.38;5047342;28;3717;-82
2023/03/10 11:45:30;;;;;;;;;;;;;;;5.22;61.26;99079.56;5038141;28;4015;-82
2023/03/10 11:47:57;;;;;;;;;;;;;;;5.23;61.33;99075.84;5050954;28;1518;-83
2023/03/10 11:50:23;;;;;;;;;;;;;;;5.24;61.40;99074.81;5037740;28;2301;-83
2023/03/10 11:52:50;;;;;;;;;;;;;;;5.26;61.91;99066.56;5033629;28;2546;-83
2023/03/10 11:55:17;;;;;;;;;;;;;;;5.38;61.26;99062.97;5048965;28;2410;-82
2023/03/10 11:57:44;;;;;;;;;;;;;;;5.30;61.51;99065.13;5048957;28;2465;-82
2023/03/10 12:00:11;;;;;;;;;;;;;;;5.27;61.58;99062.88;5030782;28;4870;-82
2023/03/10 12:02:37;;;;;;;;;;;;;;;5.41;61.29;99059.00;5048703;28;2547;-82
2023/03/10 12:05:05;;;;;;;;;;;;;;;5.36;61.49;99048.22;5046774;28;2520;-82
2023/03/10 12:07:32;;;;;;;;;;;;;;;5.38;61.65;99056.78;5067135;28;4726;-81
2023/03/10 12:09:58;;;;;;;;;;;;;;;5.42;61.25;99055.31;5044381;28;3488;-82
2023/03/10 12:12:25;;;;;;;;;;;;;;;5.39;61.48;99053.91;5054428;28;1340;-82
2023/03/10 12:14:51;;;;;;;;;;;;;;;5.43;61.19;99051.59;5071077;28;2626;-82
2023/03/10 12:17:18;;;;;;;;;;;;;;;5.43;61.42;99048.94;5055415;28;1971;-82
2023/03/10 12:19:44;;;;;;;;;;;;;;;5.43;61.55;99040.94;5068724;28;1286;-81
2023/03/10 12:22:11;;;;;;;;;;;;;;;5.42;61.65;99045.47;5032893;28;2377;-82
2023/03/10 12:24:38;;;;;;;;;;;;;;;5.46;61.55;99035.13;5050596;28;1154;-82
2023/03/10 12:27:05;;;;;;;;;;;;;;;5.48;61.53;99033.06;5053598;28;2287;-82
2023/03/10 12:29:31;;;;;;;;;;;;;;;5.51;61.48;99037.16;5044089;28;2533;-81
2023/03/10 12:31:58;;;;;;;;;;;;;;;5.53;61.59;99035.91;5037035;28;2242;-81
2023/03/10 12:34:26;;;;;;;;;;;;;;;5.55;61.15;99039.13;5037686;28;1276;-81
2023/03/10 12:36:53;;;;;;;;;;;;;;;5.51;61.43;99029.94;5053116;28;1404;-81
2023/03/10 12:39:19;;;;;;;;;;;;;;;5.51;61.49;99040.63;5044469;28;2338;-79
2023/03/10 12:41:46;;;;;;;;;;;;;;;5.55;61.68;99041.00;5050128;28;1377;-80
2023/03/10 12:44:12;;;;;;;;;;;;;;;5.54;61.89;99034.03;5064208;28;4289;-80
2023/03/10 12:46:39;;;;;;;;;;;;;;;5.57;61.34;99039.75;5061396;28;5237;-80
2023/03/10 12:49:06;;;;;;;;;;;;;;;5.53;61.76;99033.22;5047491;28;4388;-80
2023/03/10 12:51:32;;;;;;;;;;;;;;;5.56;61.66;99035.44;5038899;28;3320;-80
2023/03/10 12:53:59;;;;;;;;;;;;;;;5.60;61.74;99046.50;5063281;28;1497;-81
2023/03/10 12:56:26;;;;;;;;;;;;;;;5.58;61.86;99041.34;5032837;28;3689;-81
2023/03/10 12:58:52;;;;;;;;;;;;;;;5.58;62.08;99044.03;5045599;28;2639;-82
2023/03/10 13:01:19;;;;;;;;;;;;;;;5.61;62.04;99037.44;5046101;28;1507;-80
2023/03/10 13:03:45;;;;;;;;;;;;;;;5.67;61.67;99042.69;5044341;28;2263;-81
2023/03/10 13:06:12;;;;;;;;;;;;;;;5.66;61.70;99040.25;5056353;28;2589;-84
2023/03/10 13:08:39;;;;;;;;;;;;;;;5.64;61.93;99039.66;5053144;28;1508;-82